createdAt,value
2023-05-19T00:02:20.823Z,2.30
2023-05-19T00:04:49.521Z,2.03
2023-05-19T00:07:20.335Z,1.90
2023-05-19T00:09:47.494Z,1.60
2023-05-19T00:12:15.046Z,1.55
2023-05-19T00:14:42.362Z,1.60
2023-05-19T00:17:09.670Z,1.70
2023-05-19T00:19:38.014Z,1.67
2023-05-19T00:22:05.388Z,1.55
2023-05-19T00:24:33.110Z,1.60
2023-05-19T00:27:00.040Z,1.67
2023-05-19T00:29:27.177Z,1.83
2023-05-19T00:31:54.153Z,2.10
2023-05-19T00:34:21.183Z,1.60
2023-05-19T00:36:48.070Z,1.77
2023-05-19T00:39:15.378Z,1.77
2023-05-19T00:41:42.586Z,1.90
2023-05-19T00:44:10.549Z,1.80
2023-05-19T00:46:38.000Z,1.90
2023-05-19T00:49:04.902Z,1.70
2023-05-19T00:51:32.061Z,1.80
2023-05-19T00:53:59.081Z,1.50
2023-05-19T00:56:26.461Z,1.35
2023-05-19T00:58:54.318Z,1.95
2023-05-19T01:01:22.343Z,1.60
2023-05-19T01:03:50.187Z,1.80
2023-05-19T01:06:21.140Z,1.90
2023-05-19T01:08:48.959Z,1.75
2023-05-19T01:11:15.852Z,1.55
2023-05-19T01:13:43.329Z,1.73
2023-05-19T01:16:32.989Z,2.30
2023-05-19T01:19:39.396Z,1.58
2023-05-19T01:22:44.373Z,1.52
2023-05-19T01:25:57.614Z,1.25
2023-05-19T01:28:59.932Z,1.50
2023-05-19T01:31:27.131Z,1.40
2023-05-19T01:33:55.280Z,1.52
2023-05-19T01:36:25.730Z,1.67
2023-05-19T01:39:00.309Z,1.33
2023-05-19T01:41:28.498Z,2.20
2023-05-19T01:43:57.060Z,1.40
2023-05-19T01:46:24.969Z,1.90
2023-05-19T01:48:53.360Z,1.50
2023-05-19T01:51:20.247Z,1.40
2023-05-19T01:53:47.164Z,1.70
2023-05-19T01:56:22.130Z,1.63
2023-05-19T01:58:58.952Z,1.85
2023-05-19T02:01:56.091Z,1.23
2023-05-19T02:04:50.364Z,1.80
2023-05-19T02:07:30.160Z,1.90
2023-05-19T02:10:18.012Z,1.60
2023-05-19T02:12:46.080Z,1.60
2023-05-19T02:15:18.408Z,1.38
2023-05-19T02:17:48.178Z,1.55
2023-05-19T02:20:18.760Z,1.70
2023-05-19T02:22:45.984Z,1.80
2023-05-19T02:25:13.605Z,1.73
2023-05-19T02:27:41.971Z,1.30
2023-05-19T02:30:10.261Z,1.60
2023-05-19T02:32:37.284Z,1.42
2023-05-19T02:35:04.793Z,1.65
2023-05-19T02:37:32.510Z,1.73
2023-05-19T02:39:59.407Z,1.40
2023-05-19T02:42:26.326Z,1.58
2023-05-19T02:44:55.318Z,1.70
2023-05-19T02:47:22.765Z,1.45
2023-05-19T02:49:52.697Z,2.10
2023-05-19T02:52:19.604Z,1.77
2023-05-19T02:54:46.735Z,1.55
2023-05-19T02:57:13.611Z,1.63
2023-05-19T02:59:41.018Z,1.52
2023-05-19T03:02:07.962Z,1.67
2023-05-19T03:04:41.465Z,1.83
2023-05-19T03:07:10.163Z,1.50
2023-05-19T03:09:40.640Z,1.60
2023-05-19T03:12:07.950Z,2.00
2023-05-19T03:14:37.348Z,1.70
2023-05-19T03:17:07.789Z,1.80
2023-05-19T03:19:34.879Z,1.50
2023-05-19T03:22:01.819Z,1.63
2023-05-19T03:24:29.309Z,1.90
2023-05-19T03:26:56.351Z,1.70
2023-05-19T03:29:23.493Z,1.75
2023-05-19T03:31:52.161Z,1.67
2023-05-19T03:34:19.205Z,1.58
2023-05-19T03:36:46.354Z,1.58
2023-05-19T03:39:16.824Z,1.30
2023-05-19T03:41:45.726Z,1.63
2023-05-19T03:44:12.723Z,1.45
2023-05-19T03:46:39.668Z,1.85
2023-05-19T03:49:25.143Z,1.80
2023-05-19T03:51:58.162Z,1.67
2023-05-19T03:54:46.143Z,1.35
2023-05-19T03:57:14.136Z,1.58
2023-05-19T03:59:41.406Z,1.63
2023-05-19T04:02:08.543Z,1.80
2023-05-19T04:04:37.211Z,1.27
2023-05-19T04:07:04.674Z,1.35
2023-05-19T04:09:35.021Z,1.98
2023-05-19T04:12:05.244Z,1.35
2023-05-19T04:14:32.209Z,1.65
2023-05-19T04:16:59.799Z,1.80
2023-05-19T04:19:27.515Z,1.52
2023-05-19T04:21:55.682Z,1.50
2023-05-19T04:24:22.597Z,1.73
2023-05-19T04:26:50.091Z,1.45
2023-05-19T04:29:18.944Z,1.40
2023-05-19T04:31:46.573Z,1.10
2023-05-19T04:34:13.618Z,1.17
2023-05-19T04:36:41.625Z,1.85
2023-05-19T04:39:09.954Z,1.83
2023-05-19T04:41:40.359Z,2.10
2023-05-19T04:44:11.032Z,1.90
2023-05-19T04:46:38.214Z,1.52
2023-05-19T04:49:06.046Z,1.77
2023-05-19T04:51:33.197Z,1.50
2023-05-19T04:54:01.577Z,1.70
2023-05-19T04:56:28.889Z,1.55
2023-05-19T04:58:56.476Z,1.63
2023-05-19T05:01:26.012Z,2.13
2023-05-19T05:03:55.648Z,1.73
2023-05-19T05:06:22.781Z,1.63
2023-05-19T05:08:50.852Z,1.45
2023-05-19T05:11:18.713Z,1.80
2023-05-19T05:13:46.750Z,1.35
2023-05-19T05:16:14.955Z,1.98
2023-05-19T05:18:44.392Z,1.50
2023-05-19T05:21:12.373Z,1.40
2023-05-19T05:23:40.513Z,1.38
2023-05-19T05:26:17.443Z,1.55
2023-05-19T05:28:46.020Z,1.67
2023-05-19T05:31:13.038Z,1.88
2023-05-19T05:33:41.424Z,1.55
2023-05-19T05:36:09.051Z,2.05
2023-05-19T05:38:37.111Z,1.90
2023-05-19T05:41:04.294Z,1.70
2023-05-19T05:43:32.780Z,1.85
2023-05-19T05:48:30.417Z,1.60
2023-05-19T05:50:59.572Z,2.75
2023-05-19T05:53:32.237Z,1.80
2023-05-19T05:56:01.224Z,1.70
2023-05-19T05:58:37.822Z,1.77
2023-05-19T06:01:05.483Z,2.60
2023-05-19T06:03:33.545Z,1.85
2023-05-19T06:06:06.239Z,2.70
2023-05-19T06:08:34.869Z,2.00
2023-05-19T06:11:06.316Z,1.95
2023-05-19T06:13:33.637Z,1.58
2023-05-19T06:16:01.984Z,2.13
2023-05-19T06:18:38.324Z,1.90
2023-05-19T06:21:05.254Z,2.50
2023-05-19T06:23:32.436Z,2.10
2023-05-19T06:26:00.151Z,1.70
2023-05-19T06:28:27.493Z,2.00
2023-05-19T06:30:55.940Z,1.80
2023-05-19T06:33:32.516Z,2.50
2023-05-19T06:35:59.962Z,2.50
2023-05-19T06:38:26.956Z,2.42
2023-05-19T06:40:53.945Z,1.90
2023-05-19T06:43:21.275Z,1.92
2023-05-19T06:45:56.186Z,2.00
2023-05-19T06:48:25.154Z,2.40
2023-05-19T06:50:52.567Z,2.15
2023-05-19T06:53:21.305Z,1.77
2023-05-19T06:55:59.479Z,1.80
2023-05-19T06:58:28.135Z,2.03
2023-05-19T07:00:56.023Z,2.22
2023-05-19T07:03:27.922Z,2.05
2023-05-19T07:05:55.857Z,2.40
2023-05-19T07:08:23.222Z,3.00
2023-05-19T07:10:50.130Z,2.72
2023-05-19T07:13:17.540Z,1.90
2023-05-19T07:15:45.025Z,2.22
2023-05-19T07:18:12.104Z,2.25
2023-05-19T07:20:39.013Z,2.33
2023-05-19T07:23:05.975Z,2.35
2023-05-19T07:25:33.312Z,2.10
2023-05-19T07:28:00.709Z,2.13
2023-05-19T07:30:28.788Z,2.20
2023-05-19T07:32:56.168Z,2.40
2023-05-19T07:35:23.218Z,2.47
2023-05-19T07:37:51.786Z,2.20
2023-05-19T07:40:18.944Z,2.22
2023-05-19T07:42:45.808Z,2.10
2023-05-19T07:45:13.014Z,2.53
2023-05-19T07:47:39.980Z,2.25
2023-05-19T07:50:07.723Z,3.15
2023-05-19T07:52:34.617Z,2.65
2023-05-19T07:55:01.450Z,2.30
2023-05-19T07:57:28.429Z,2.30
2023-05-19T07:59:55.639Z,2.17
2023-05-19T08:02:23.236Z,2.13
2023-05-19T08:04:50.442Z,2.65
2023-05-19T08:07:17.580Z,2.50
2023-05-19T08:09:44.445Z,3.90
2023-05-19T08:12:17.657Z,3.22
2023-05-19T08:14:44.620Z,2.70
2023-05-19T08:17:12.846Z,2.80
2023-05-19T08:19:39.711Z,2.25
2023-05-19T08:22:06.756Z,2.40
2023-05-19T08:24:36.529Z,2.53
2023-05-19T08:27:04.824Z,2.20
2023-05-19T08:29:31.915Z,2.30
2023-05-19T08:31:58.899Z,2.60
2023-05-19T08:34:25.854Z,2.28
2023-05-19T08:36:53.423Z,2.13
2023-05-19T08:39:25.140Z,2.17
2023-05-19T08:41:53.654Z,2.25
2023-05-19T08:44:20.997Z,2.45
2023-05-19T08:46:48.258Z,2.28
2023-05-19T08:49:20.053Z,2.83
2023-05-19T08:52:13.807Z,2.30
2023-05-19T08:54:55.913Z,2.38
2023-05-19T08:57:24.645Z,2.33
2023-05-19T08:59:53.366Z,2.03
2023-05-19T09:02:21.735Z,2.30
2023-05-19T09:04:49.492Z,7.38
2023-05-19T09:07:16.877Z,2.47
2023-05-19T09:09:44.024Z,3.10
2023-05-19T09:12:11.975Z,2.08
2023-05-19T09:14:39.915Z,2.17
2023-05-19T09:17:07.059Z,4.00
2023-05-19T09:19:34.447Z,2.40
2023-05-19T09:22:05.467Z,2.80
2023-05-19T09:24:34.326Z,2.63
2023-05-19T09:27:02.094Z,2.20
2023-05-19T09:29:29.222Z,2.40
2023-05-19T09:32:01.600Z,2.28
2023-05-19T09:34:28.659Z,2.70
2023-05-19T09:36:55.870Z,2.45
2023-05-19T09:39:23.993Z,1.92
2023-05-19T09:41:55.388Z,3.13
2023-05-19T09:44:30.300Z,2.03
2023-05-19T09:46:58.587Z,1.92
2023-05-19T09:49:30.455Z,2.05
2023-05-19T09:52:04.813Z,1.98
2023-05-19T09:54:34.238Z,1.95
2023-05-19T09:57:03.814Z,2.13
2023-05-19T09:59:33.722Z,1.77
2023-05-19T10:02:02.435Z,2.42
2023-05-19T10:04:30.972Z,2.42
2023-05-19T10:06:59.570Z,2.25
2023-05-19T10:09:28.689Z,2.10
2023-05-19T10:12:00.890Z,2.45
2023-05-19T10:14:30.072Z,3.20
2023-05-19T10:16:59.098Z,2.53
2023-05-19T10:19:29.341Z,2.60
2023-05-19T10:21:57.691Z,2.40
2023-05-19T10:24:25.244Z,2.50
2023-05-19T10:27:01.667Z,2.03
2023-05-19T10:29:40.253Z,2.47
2023-05-19T10:32:31.097Z,2.70
2023-05-19T10:35:16.822Z,2.00
2023-05-19T10:38:13.708Z,2.15
2023-05-19T10:42:05.208Z,1.77
2023-05-19T10:44:53.754Z,2.10
2023-05-19T10:47:25.802Z,2.15
2023-05-19T10:49:54.242Z,1.63
2023-05-19T10:52:29.767Z,1.90
2023-05-19T10:54:58.334Z,1.80
2023-05-19T10:57:31.763Z,1.90
2023-05-19T11:00:01.098Z,1.90
2023-05-19T11:02:42.965Z,2.03
2023-05-19T11:05:18.547Z,1.80
2023-05-19T11:08:06.247Z,1.90
2023-05-19T11:10:33.691Z,1.85
2023-05-19T11:13:01.096Z,1.63
2023-05-19T11:15:28.848Z,1.88
2023-05-19T11:17:56.183Z,1.77
2023-05-19T11:20:34.752Z,1.90
2023-05-19T11:23:08.473Z,2.10
2023-05-19T11:25:47.719Z,1.80
2023-05-19T11:28:19.651Z,1.98
2023-05-19T11:30:52.155Z,1.98
2023-05-19T11:33:21.620Z,1.92
2023-05-19T11:35:50.318Z,1.80
2023-05-19T11:38:19.146Z,1.98
2023-05-19T11:40:47.172Z,1.73
2023-05-19T11:43:14.147Z,2.03
2023-05-19T11:45:41.419Z,2.60
2023-05-19T11:48:18.853Z,2.17
2023-05-19T11:50:46.830Z,2.38
2023-05-19T11:53:15.472Z,1.75
2023-05-19T11:55:46.046Z,2.28
2023-05-19T11:58:13.331Z,2.00
2023-05-19T12:00:42.770Z,1.95
2023-05-19T12:03:10.075Z,1.98
2023-05-19T12:05:43.898Z,1.90
2023-05-19T12:08:12.368Z,2.10
2023-05-19T12:10:40.697Z,2.40
2023-05-19T12:13:11.493Z,2.60
2023-05-19T12:15:39.299Z,1.90
2023-05-19T12:18:14.479Z,2.35
2023-05-19T12:20:41.740Z,2.15
2023-05-19T12:23:09.215Z,2.13
2023-05-19T12:25:36.911Z,2.53
2023-05-19T12:28:04.759Z,2.65
2023-05-19T12:30:33.567Z,2.50
2023-05-19T12:33:02.149Z,2.17
2023-05-19T12:35:33.649Z,2.20
2023-05-19T12:38:07.239Z,2.60
2023-05-19T12:40:36.501Z,2.00
2023-05-19T12:43:04.557Z,2.60
2023-05-19T12:45:38.685Z,2.40
2023-05-19T12:48:11.431Z,2.13
2023-05-19T12:50:38.724Z,2.55
2023-05-19T12:53:10.517Z,2.17
2023-05-19T12:55:43.234Z,2.20
2023-05-19T12:58:13.450Z,2.20
2023-05-19T13:00:44.038Z,2.50
2023-05-19T13:03:21.137Z,2.63
2023-05-19T13:05:50.851Z,2.30
2023-05-19T13:08:24.679Z,2.70
2023-05-19T13:10:51.856Z,2.05
2023-05-19T13:13:19.346Z,2.22
2023-05-19T13:15:49.212Z,2.50
2023-05-19T13:20:46.404Z,2.60
2023-05-19T13:23:14.724Z,2.40
2023-05-19T13:25:43.742Z,2.30
2023-05-19T13:28:11.416Z,2.30
2023-05-19T13:30:40.576Z,2.00
2023-05-19T13:33:08.215Z,2.70
2023-05-19T13:35:38.385Z,2.33
2023-05-19T13:38:07.818Z,2.58
2023-05-19T13:40:35.221Z,2.10
2023-05-19T13:43:03.813Z,2.80
2023-05-19T13:45:30.983Z,2.30
2023-05-19T13:47:58.471Z,2.50
2023-05-19T13:50:26.652Z,2.20
2023-05-19T13:52:54.025Z,2.75
2023-05-19T13:55:21.510Z,2.15
2023-05-19T13:57:49.168Z,2.20
2023-05-19T14:00:18.160Z,2.58
2023-05-19T14:02:45.285Z,2.35
2023-05-19T14:05:12.409Z,2.10
2023-05-19T14:07:39.526Z,2.20
2023-05-19T14:10:07.307Z,2.20
2023-05-19T14:12:49.442Z,2.30
2023-05-19T14:15:23.606Z,2.25
2023-05-19T14:17:50.614Z,2.30
2023-05-19T14:20:17.642Z,1.90
2023-05-19T14:22:44.553Z,2.50
2023-05-19T14:25:11.540Z,2.22
2023-05-19T14:27:39.916Z,1.92
2023-05-19T14:30:08.116Z,2.42
2023-05-19T14:32:35.224Z,2.28
2023-05-19T14:35:02.370Z,2.08
2023-05-19T14:37:29.302Z,2.20
2023-05-19T14:39:57.496Z,2.17
2023-05-19T14:42:25.120Z,2.30
2023-05-19T14:44:52.119Z,2.25
2023-05-19T14:47:19.016Z,2.15
2023-05-19T14:49:46.067Z,2.47
2023-05-19T14:52:13.076Z,2.08
2023-05-19T14:54:40.029Z,2.17
2023-05-19T14:57:08.231Z,2.38
2023-05-19T14:59:38.622Z,2.40
2023-05-19T15:02:06.005Z,2.28
2023-05-19T15:04:34.274Z,2.25
2023-05-19T15:09:31.320Z,2.05
2023-05-19T15:12:00.950Z,2.38
2023-05-19T15:14:29.406Z,2.20
2023-05-19T15:16:57.863Z,2.35
2023-05-19T15:19:25.158Z,2.22
2023-05-19T15:21:52.241Z,2.00
2023-05-19T15:24:19.345Z,2.40
2023-05-19T15:26:47.382Z,3.40
2023-05-19T15:29:14.426Z,2.95
2023-05-19T15:31:41.814Z,2.63
2023-05-19T15:34:08.971Z,2.33
2023-05-19T15:36:35.968Z,2.30
2023-05-19T15:39:03.834Z,2.20
2023-05-19T15:41:30.902Z,2.25
2023-05-19T15:44:00.310Z,2.00
2023-05-19T15:46:27.803Z,2.13
2023-05-19T15:48:59.724Z,2.88
2023-05-19T15:51:27.433Z,2.42
2023-05-19T15:53:54.399Z,2.40
2023-05-19T15:56:22.785Z,2.22
2023-05-19T15:58:49.827Z,2.42
2023-05-19T16:01:17.910Z,2.28
2023-05-19T16:03:48.134Z,2.03
2023-05-19T16:06:15.194Z,2.25
2023-05-19T16:08:42.176Z,2.45
2023-05-19T16:11:09.185Z,2.10
2023-05-19T16:13:36.121Z,2.05
2023-05-19T16:16:03.346Z,2.25
2023-05-19T16:18:30.448Z,2.10
2023-05-19T16:20:57.511Z,1.92
2023-05-19T16:23:24.758Z,2.20
2023-05-19T16:25:52.504Z,2.42
2023-05-19T16:28:19.565Z,2.50
2023-05-19T16:30:46.750Z,2.35
2023-05-19T16:33:14.215Z,2.00
2023-05-19T16:35:41.347Z,2.40
2023-05-19T16:38:08.623Z,3.53
2023-05-19T16:41:16.977Z,2.92
2023-05-19T16:43:49.865Z,2.03
2023-05-19T16:46:16.869Z,2.10
2023-05-19T16:48:43.892Z,2.17
2023-05-19T16:51:10.802Z,1.95
2023-05-19T16:53:37.764Z,1.98
2023-05-19T16:56:05.235Z,2.42
2023-05-19T16:58:32.303Z,1.77
2023-05-19T17:00:59.297Z,2.00
2023-05-19T17:03:26.475Z,2.17
2023-05-19T17:05:53.706Z,2.55
2023-05-19T17:08:20.556Z,1.90
2023-05-19T17:10:47.981Z,2.58
2023-05-19T17:13:14.932Z,2.47
2023-05-19T17:15:43.387Z,2.20
2023-05-19T17:18:12.818Z,1.90
2023-05-19T17:20:39.728Z,2.10
2023-05-19T17:23:09.079Z,3.03
2023-05-19T17:25:36.358Z,2.30
2023-05-19T17:28:03.616Z,2.08
2023-05-19T17:30:31.018Z,2.05
2023-05-19T17:33:00.778Z,2.05
2023-05-19T17:35:28.521Z,2.10
2023-05-19T17:37:56.185Z,2.20
2023-05-19T17:40:23.159Z,2.03
2023-05-19T17:42:50.096Z,2.08
2023-05-19T17:45:17.696Z,2.00
2023-05-19T17:47:44.702Z,2.15
2023-05-19T17:50:11.937Z,2.17
2023-05-19T17:52:40.482Z,2.45
2023-05-19T17:55:08.935Z,3.88
2023-05-19T17:57:37.118Z,2.38
2023-05-19T18:00:05.690Z,2.00
2023-05-19T18:02:33.226Z,4.05
2023-05-19T18:05:01.167Z,2.42
2023-05-19T18:07:29.411Z,2.10
2023-05-19T18:09:56.837Z,2.42
2023-05-19T18:12:24.137Z,2.30
2023-05-19T18:14:51.294Z,2.10
2023-05-19T18:17:18.380Z,2.10
2023-05-19T18:19:45.412Z,2.25
2023-05-19T18:22:14.830Z,2.00
2023-05-19T18:24:41.823Z,2.00
2023-05-19T18:27:08.857Z,2.13
2023-05-19T18:29:35.854Z,1.77
2023-05-19T18:32:03.144Z,2.40
2023-05-19T18:34:31.398Z,16.30
2023-05-19T18:36:58.455Z,18.95
2023-05-19T18:39:27.153Z,6.22
2023-05-19T18:41:56.781Z,3.53
2023-05-19T18:44:23.760Z,6.25
2023-05-19T18:46:50.735Z,14.98
2023-05-19T18:49:17.752Z,15.50
2023-05-19T18:51:44.719Z,8.10
2023-05-19T18:54:12.771Z,5.13
2023-05-19T18:56:39.751Z,2.53
2023-05-19T18:59:06.703Z,2.40
2023-05-19T19:01:33.964Z,2.00
2023-05-19T19:04:02.010Z,2.30
2023-05-19T19:06:29.063Z,1.98
2023-05-19T19:08:56.264Z,1.90
2023-05-19T19:11:25.658Z,1.90
2023-05-19T19:13:55.423Z,2.08
2023-05-19T19:18:50.787Z,1.90
2023-05-19T19:21:19.863Z,1.95
2023-05-19T19:23:46.824Z,2.00
2023-05-19T19:26:13.868Z,1.80
2023-05-19T19:28:41.085Z,1.63
2023-05-19T19:31:08.191Z,2.20
2023-05-19T19:33:35.142Z,2.05
2023-05-19T19:36:02.277Z,1.98
2023-05-19T19:38:29.599Z,1.83
2023-05-19T19:40:56.952Z,1.90
2023-05-19T19:43:23.957Z,2.15
2023-05-19T19:46:02.710Z,2.35
2023-05-19T19:48:29.820Z,2.20
2023-05-19T19:50:57.716Z,1.83
2023-05-19T19:53:24.933Z,2.33
2023-05-19T19:55:59.118Z,2.22
2023-05-19T19:58:27.252Z,2.08
2023-05-19T20:00:59.442Z,2.25
2023-05-19T20:03:27.019Z,2.00
2023-05-19T20:05:56.912Z,1.98
2023-05-19T20:08:25.225Z,1.90
2023-05-19T20:10:52.653Z,2.13
2023-05-19T20:13:20.194Z,2.05
2023-05-19T20:15:47.529Z,2.10
2023-05-19T20:18:14.939Z,2.05
2023-05-19T20:20:42.494Z,1.88
2023-05-19T20:23:09.646Z,2.05
2023-05-19T20:25:58.518Z,1.88
2023-05-19T20:28:30.176Z,1.77
2023-05-19T20:30:57.256Z,1.90
2023-05-19T20:33:24.233Z,2.20
2023-05-19T20:35:51.507Z,1.98
2023-05-19T20:38:18.516Z,2.20
2023-05-19T20:40:45.949Z,2.47
2023-05-19T20:43:12.977Z,2.58
2023-05-19T20:45:43.190Z,2.95
2023-05-19T20:48:11.341Z,2.65
2023-05-19T20:50:40.004Z,2.30
2023-05-19T20:53:07.562Z,2.47
2023-05-19T20:55:36.335Z,3.00
2023-05-19T20:58:03.648Z,3.15
2023-05-19T21:00:30.970Z,3.13
2023-05-19T21:02:58.198Z,2.92
2023-05-19T21:05:25.513Z,3.30
2023-05-19T21:07:52.550Z,3.05
2023-05-19T21:10:19.539Z,3.40
2023-05-19T21:12:46.725Z,3.45
2023-05-19T21:15:14.180Z,3.47
2023-05-19T21:17:41.191Z,2.67
2023-05-19T21:20:09.242Z,2.53
2023-05-19T21:22:36.430Z,2.92
2023-05-19T21:25:04.000Z,2.13
2023-05-19T21:27:32.903Z,2.60
2023-05-19T21:30:00.516Z,2.28
2023-05-19T21:32:29.536Z,2.45
2023-05-19T21:34:56.875Z,2.87
2023-05-19T21:37:23.866Z,2.55
2023-05-19T21:39:51.596Z,2.40
2023-05-19T21:42:18.705Z,2.53
2023-05-19T21:44:45.788Z,2.05
2023-05-19T21:47:12.895Z,2.25
2023-05-19T21:49:40.828Z,2.30
2023-05-19T21:52:08.067Z,2.50
2023-05-19T21:54:36.232Z,2.15
2023-05-19T21:57:03.461Z,2.60
2023-05-19T21:59:30.556Z,2.70
2023-05-19T22:01:58.383Z,3.00
2023-05-19T22:04:25.831Z,2.13
2023-05-19T22:06:52.925Z,2.47
2023-05-19T22:09:19.932Z,2.20
2023-05-19T22:11:46.981Z,2.35
2023-05-19T22:14:14.613Z,2.60
2023-05-19T22:16:41.675Z,2.40
2023-05-19T22:19:09.013Z,2.60
2023-05-19T22:21:36.572Z,2.33
2023-05-19T22:24:04.054Z,2.22
2023-05-19T22:26:31.113Z,2.33
2023-05-19T22:28:58.085Z,2.35
2023-05-19T22:31:25.060Z,2.30
2023-05-19T22:33:52.039Z,2.50
2023-05-19T22:36:19.322Z,3.33
2023-05-19T22:38:46.356Z,2.30
2023-05-19T22:41:13.484Z,2.30
2023-05-19T22:43:48.389Z,2.58
2023-05-19T22:46:15.458Z,2.30
2023-05-19T22:48:42.544Z,2.13
2023-05-19T22:51:09.691Z,2.85
2023-05-19T22:53:36.814Z,2.28
2023-05-19T22:56:03.974Z,2.35
2023-05-19T22:58:33.237Z,2.35
2023-05-19T23:01:00.259Z,2.30
2023-05-19T23:03:27.330Z,2.40
2023-05-19T23:05:54.342Z,2.60
2023-05-19T23:08:21.452Z,2.53
2023-05-19T23:10:48.670Z,2.63
2023-05-19T23:13:16.218Z,2.47
2023-05-19T23:15:43.270Z,2.70
2023-05-19T23:18:14.955Z,3.05
2023-05-19T23:20:41.982Z,2.15
2023-05-19T23:23:09.039Z,2.25
2023-05-19T23:25:36.439Z,2.28
2023-05-19T23:28:03.616Z,2.28
2023-05-19T23:30:31.477Z,2.67
2023-05-19T23:32:58.745Z,2.20
2023-05-19T23:35:25.941Z,2.22
2023-05-19T23:37:53.418Z,2.10
2023-05-19T23:40:20.590Z,2.15
2023-05-19T23:42:47.666Z,2.67
2023-05-19T23:45:14.686Z,2.05
2023-05-19T23:47:41.749Z,2.05
2023-05-19T23:50:09.467Z,2.40
2023-05-19T23:52:36.455Z,2.30
2023-05-19T23:55:03.695Z,2.22
2023-05-19T23:57:30.746Z,2.15
2023-05-19T23:59:57.636Z,1.98
